sensor_id;sensor_type;location;lat;lon;timestamp;temperature;humidity
44277;DHT22;29973;43.742;1.236;2023-05-29T00:01:13;14.80;99.90
44277;DHT22;29973;43.742;1.236;2023-05-29T00:03:44;14.70;99.90
44277;DHT22;29973;43.742;1.236;2023-05-29T00:06:10;14.70;99.90
44277;DHT22;29973;43.742;1.236;2023-05-29T00:08:36;14.50;99.90
44277;DHT22;29973;43.742;1.236;2023-05-29T00:11:01;14.30;99.90
44277;DHT22;29973;43.742;1.236;2023-05-29T00:13:27;14.30;99.90
44277;DHT22;29973;43.742;1.236;2023-05-29T00:15:53;14.30;99.90
44277;DHT22;29973;43.742;1.236;2023-05-29T00:18:18;14.20;99.90
44277;DHT22;29973;43.742;1.236;2023-05-29T00:20:44;14.30;99.90
44277;DHT22;29973;43.742;1.236;2023-05-29T00:23:10;14.20;99.90
44277;DHT22;29973;43.742;1.236;2023-05-29T00:25:35;14.30;99.90
44277;DHT22;29973;43.742;1.236;2023-05-29T00:28:01;14.20;99.90
44277;DHT22;29973;43.742;1.236;2023-05-29T00:30:27;14.10;99.90
44277;DHT22;29973;43.742;1.236;2023-05-29T00:32:52;14.00;99.90
44277;DHT22;29973;43.742;1.236;2023-05-29T00:35:19;14.00;99.90
44277;DHT22;29973;43.742;1.236;2023-05-29T00:37:45;14.10;99.90
44277;DHT22;29973;43.742;1.236;2023-05-29T00:40:11;13.90;99.90
44277;DHT22;29973;43.742;1.236;2023-05-29T00:42:37;13.90;99.90
44277;DHT22;29973;43.742;1.236;2023-05-29T00:45:03;14.00;99.90
44277;DHT22;29973;43.742;1.236;2023-05-29T00:47:29;14.10;99.90
44277;DHT22;29973;43.742;1.236;2023-05-29T00:49:55;13.90;99.90
44277;DHT22;29973;43.742;1.236;2023-05-29T00:52:22;13.90;99.90
44277;DHT22;29973;43.742;1.236;2023-05-29T00:54:48;13.80;99.90
44277;DHT22;29973;43.742;1.236;2023-05-29T00:57:16;13.60;99.90
44277;DHT22;29973;43.742;1.236;2023-05-29T00:59:42;13.60;99.90
44277;DHT22;29973;43.742;1.236;2023-05-29T01:02:09;13.70;99.90
44277;DHT22;29973;43.742;1.236;2023-05-29T01:04:36;13.80;99.90
44277;DHT22;29973;43.742;1.236;2023-05-29T01:07:02;13.70;99.90
44277;DHT22;29973;43.742;1.236;2023-05-29T01:09:29;13.80;99.90
44277;DHT22;29973;43.742;1.236;2023-05-29T01:20:23;13.50;99.90
44277;DHT22;29973;43.742;1.236;2023-05-29T01:26:11;13.60;99.90
44277;DHT22;29973;43.742;1.236;2023-05-29T01:28:47;13.60;99.90
44277;DHT22;29973;43.742;1.236;2023-05-29T01:31:20;13.50;99.90
44277;DHT22;29973;43.742;1.236;2023-05-29T01:33:57;13.30;99.90
44277;DHT22;29973;43.742;1.236;2023-05-29T01:36:24;13.20;99.90
44277;DHT22;29973;43.742;1.236;2023-05-29T01:38:51;13.10;99.90
44277;DHT22;29973;43.742;1.236;2023-05-29T01:41:18;13.30;99.90
44277;DHT22;29973;43.742;1.236;2023-05-29T01:43:45;13.20;99.90
44277;DHT22;29973;43.742;1.236;2023-05-29T01:46:15;13.20;99.90
44277;DHT22;29973;43.742;1.236;2023-05-29T01:48:41;13.20;99.90
44277;DHT22;29973;43.742;1.236;2023-05-29T01:51:11;13.10;99.90
44277;DHT22;29973;43.742;1.236;2023-05-29T01:53:37;13.20;99.90
44277;DHT22;29973;43.742;1.236;2023-05-29T01:56:07;13.20;99.90
44277;DHT22;29973;43.742;1.236;2023-05-29T01:58:34;13.20;99.90
44277;DHT22;29973;43.742;1.236;2023-05-29T02:01:02;13.10;99.90
44277;DHT22;29973;43.742;1.236;2023-05-29T02:03:29;12.90;99.90
44277;DHT22;29973;43.742;1.236;2023-05-29T02:05:58;12.80;99.90
44277;DHT22;29973;43.742;1.236;2023-05-29T02:08:25;12.90;99.90
44277;DHT22;29973;43.742;1.236;2023-05-29T02:10:51;12.80;99.90
44277;DHT22;29973;43.742;1.236;2023-05-29T02:13:17;12.60;99.90
44277;DHT22;29973;43.742;1.236;2023-05-29T02:15:43;12.60;99.90
44277;DHT22;29973;43.742;1.236;2023-05-29T02:18:12;12.60;99.90
44277;DHT22;29973;43.742;1.236;2023-05-29T02:20:39;12.70;99.90
44277;DHT22;29973;43.742;1.236;2023-05-29T02:23:04;12.80;99.90
44277;DHT22;29973;43.742;1.236;2023-05-29T02:25:30;12.70;99.90
44277;DHT22;29973;43.742;1.236;2023-05-29T02:27:56;12.50;99.90
44277;DHT22;29973;43.742;1.236;2023-05-29T02:30:21;12.40;99.90
44277;DHT22;29973;43.742;1.236;2023-05-29T02:32:47;12.40;99.90
44277;DHT22;29973;43.742;1.236;2023-05-29T02:35:13;12.50;99.90
44277;DHT22;29973;43.742;1.236;2023-05-29T02:37:41;12.50;99.90
44277;DHT22;29973;43.742;1.236;2023-05-29T02:40:07;12.50;99.90
44277;DHT22;29973;43.742;1.236;2023-05-29T02:42:34;12.50;99.90
44277;DHT22;29973;43.742;1.236;2023-05-29T02:45:00;12.60;99.90
44277;DHT22;29973;43.742;1.236;2023-05-29T02:47:25;12.70;99.90
44277;DHT22;29973;43.742;1.236;2023-05-29T02:49:51;12.60;99.90
44277;DHT22;29973;43.742;1.236;2023-05-29T02:52:17;12.60;99.90
44277;DHT22;29973;43.742;1.236;2023-05-29T02:54:42;12.40;99.90
44277;DHT22;29973;43.742;1.236;2023-05-29T02:57:08;12.10;99.90
44277;DHT22;29973;43.742;1.236;2023-05-29T02:59:35;12.10;99.90
44277;DHT22;29973;43.742;1.236;2023-05-29T03:02:00;12.20;99.90
44277;DHT22;29973;43.742;1.236;2023-05-29T03:04:27;12.30;99.90
44277;DHT22;29973;43.742;1.236;2023-05-29T03:06:53;12.20;99.90
44277;DHT22;29973;43.742;1.236;2023-05-29T03:09:19;12.20;99.90
44277;DHT22;29973;43.742;1.236;2023-05-29T03:11:45;12.30;99.90
44277;DHT22;29973;43.742;1.236;2023-05-29T03:14:13;12.40;99.90
44277;DHT22;29973;43.742;1.236;2023-05-29T03:16:39;12.40;99.90
44277;DHT22;29973;43.742;1.236;2023-05-29T03:19:06;12.40;99.90
44277;DHT22;29973;43.742;1.236;2023-05-29T03:21:33;12.10;99.90
44277;DHT22;29973;43.742;1.236;2023-05-29T03:23:59;12.00;99.90
44277;DHT22;29973;43.742;1.236;2023-05-29T03:26:26;12.00;99.90
44277;DHT22;29973;43.742;1.236;2023-05-29T03:28:51;12.10;99.90
44277;DHT22;29973;43.742;1.236;2023-05-29T03:31:17;12.10;99.90
44277;DHT22;29973;43.742;1.236;2023-05-29T03:33:43;12.20;99.90
44277;DHT22;29973;43.742;1.236;2023-05-29T03:36:09;12.20;99.90
44277;DHT22;29973;43.742;1.236;2023-05-29T03:38:34;12.20;99.90
44277;DHT22;29973;43.742;1.236;2023-05-29T03:41:00;12.30;99.90
44277;DHT22;29973;43.742;1.236;2023-05-29T03:43:26;12.20;99.90
44277;DHT22;29973;43.742;1.236;2023-05-29T03:45:51;12.10;99.90
44277;DHT22;29973;43.742;1.236;2023-05-29T03:48:17;12.10;99.90
44277;DHT22;29973;43.742;1.236;2023-05-29T03:50:44;12.20;99.90
44277;DHT22;29973;43.742;1.236;2023-05-29T03:53:09;12.20;99.90
44277;DHT22;29973;43.742;1.236;2023-05-29T03:55:35;12.00;99.90
44277;DHT22;29973;43.742;1.236;2023-05-29T03:58:01;11.90;99.90
44277;DHT22;29973;43.742;1.236;2023-05-29T04:00:27;12.00;99.90
44277;DHT22;29973;43.742;1.236;2023-05-29T04:02:52;12.10;99.90
44277;DHT22;29973;43.742;1.236;2023-05-29T04:05:18;12.10;99.90
44277;DHT22;29973;43.742;1.236;2023-05-29T04:07:44;12.10;99.90
44277;DHT22;29973;43.742;1.236;2023-05-29T04:10:10;12.20;99.90
44277;DHT22;29973;43.742;1.236;2023-05-29T04:12:35;12.20;99.90
44277;DHT22;29973;43.742;1.236;2023-05-29T04:15:01;12.20;99.90
44277;DHT22;29973;43.742;1.236;2023-05-29T04:17:27;12.30;99.90
44277;DHT22;29973;43.742;1.236;2023-05-29T04:19:52;12.40;99.90
44277;DHT22;29973;43.742;1.236;2023-05-29T04:22:18;12.30;99.90
44277;DHT22;29973;43.742;1.236;2023-05-29T04:24:46;12.30;99.90
44277;DHT22;29973;43.742;1.236;2023-05-29T04:27:12;12.20;99.90
44277;DHT22;29973;43.742;1.236;2023-05-29T04:29:42;12.30;99.90
44277;DHT22;29973;43.742;1.236;2023-05-29T04:32:11;12.30;99.90
44277;DHT22;29973;43.742;1.236;2023-05-29T04:34:39;12.30;99.90
44277;DHT22;29973;43.742;1.236;2023-05-29T04:37:05;12.30;99.90
44277;DHT22;29973;43.742;1.236;2023-05-29T04:39:31;12.30;99.90
44277;DHT22;29973;43.742;1.236;2023-05-29T04:41:57;12.40;99.90
44277;DHT22;29973;43.742;1.236;2023-05-29T04:44:26;12.60;99.90
44277;DHT22;29973;43.742;1.236;2023-05-29T04:46:53;12.50;99.90
44277;DHT22;29973;43.742;1.236;2023-05-29T04:49:19;12.40;99.90
44277;DHT22;29973;43.742;1.236;2023-05-29T04:51:46;12.30;99.90
44277;DHT22;29973;43.742;1.236;2023-05-29T04:54:12;12.40;99.90
44277;DHT22;29973;43.742;1.236;2023-05-29T04:56:38;12.40;99.90
44277;DHT22;29973;43.742;1.236;2023-05-29T04:59:06;12.50;99.90
44277;DHT22;29973;43.742;1.236;2023-05-29T05:01:34;12.50;99.90
44277;DHT22;29973;43.742;1.236;2023-05-29T05:04:00;12.60;99.90
44277;DHT22;29973;43.742;1.236;2023-05-29T05:06:26;12.70;99.90
44277;DHT22;29973;43.742;1.236;2023-05-29T05:08:54;12.70;99.90
44277;DHT22;29973;43.742;1.236;2023-05-29T05:11:21;12.70;99.90
44277;DHT22;29973;43.742;1.236;2023-05-29T05:13:47;12.80;99.90
44277;DHT22;29973;43.742;1.236;2023-05-29T05:16:12;12.90;99.90
44277;DHT22;29973;43.742;1.236;2023-05-29T05:18:38;12.80;99.90
44277;DHT22;29973;43.742;1.236;2023-05-29T05:21:04;12.70;99.90
44277;DHT22;29973;43.742;1.236;2023-05-29T05:23:31;12.70;99.90
44277;DHT22;29973;43.742;1.236;2023-05-29T05:25:57;12.80;99.90
44277;DHT22;29973;43.742;1.236;2023-05-29T05:28:23;12.90;99.90
44277;DHT22;29973;43.742;1.236;2023-05-29T05:30:49;13.00;99.90
44277;DHT22;29973;43.742;1.236;2023-05-29T05:33:14;13.10;99.90
44277;DHT22;29973;43.742;1.236;2023-05-29T05:35:40;13.20;99.90
44277;DHT22;29973;43.742;1.236;2023-05-29T05:38:06;13.20;99.90
44277;DHT22;29973;43.742;1.236;2023-05-29T05:40:32;13.30;99.90
44277;DHT22;29973;43.742;1.236;2023-05-29T05:42:58;13.40;99.90
44277;DHT22;29973;43.742;1.236;2023-05-29T05:45:23;13.60;99.90
44277;DHT22;29973;43.742;1.236;2023-05-29T05:47:49;13.70;99.90
44277;DHT22;29973;43.742;1.236;2023-05-29T05:50:15;14.00;99.90
44277;DHT22;29973;43.742;1.236;2023-05-29T05:52:41;14.10;99.90
44277;DHT22;29973;43.742;1.236;2023-05-29T05:55:07;14.30;99.90
44277;DHT22;29973;43.742;1.236;2023-05-29T05:57:33;14.40;99.90
44277;DHT22;29973;43.742;1.236;2023-05-29T05:59:59;14.50;99.90
44277;DHT22;29973;43.742;1.236;2023-05-29T06:02:26;14.60;99.90
44277;DHT22;29973;43.742;1.236;2023-05-29T06:04:51;14.80;99.90
44277;DHT22;29973;43.742;1.236;2023-05-29T06:07:17;14.90;99.90
44277;DHT22;29973;43.742;1.236;2023-05-29T06:09:43;15.00;99.90
44277;DHT22;29973;43.742;1.236;2023-05-29T06:12:09;15.10;99.90
44277;DHT22;29973;43.742;1.236;2023-05-29T06:14:38;15.10;99.90
44277;DHT22;29973;43.742;1.236;2023-05-29T06:17:04;15.20;99.90
44277;DHT22;29973;43.742;1.236;2023-05-29T06:19:29;15.30;99.90
44277;DHT22;29973;43.742;1.236;2023-05-29T06:21:55;15.50;99.90
44277;DHT22;29973;43.742;1.236;2023-05-29T06:24:21;15.70;99.90
44277;DHT22;29973;43.742;1.236;2023-05-29T06:26:53;15.90;99.90
44277;DHT22;29973;43.742;1.236;2023-05-29T06:29:18;16.00;99.90
44277;DHT22;29973;43.742;1.236;2023-05-29T06:31:44;16.10;99.90
44277;DHT22;29973;43.742;1.236;2023-05-29T06:34:10;16.20;99.90
44277;DHT22;29973;43.742;1.236;2023-05-29T06:36:35;16.30;99.90
44277;DHT22;29973;43.742;1.236;2023-05-29T06:39:01;16.30;99.90
44277;DHT22;29973;43.742;1.236;2023-05-29T06:41:27;16.70;99.90
44277;DHT22;29973;43.742;1.236;2023-05-29T06:43:52;16.70;99.90
44277;DHT22;29973;43.742;1.236;2023-05-29T06:46:18;16.70;99.90
44277;DHT22;29973;43.742;1.236;2023-05-29T06:48:44;16.90;99.90
44277;DHT22;29973;43.742;1.236;2023-05-29T06:51:10;17.30;99.90
44277;DHT22;29973;43.742;1.236;2023-05-29T06:53:40;17.60;99.90
44277;DHT22;29973;43.742;1.236;2023-05-29T06:56:06;17.40;99.90
44277;DHT22;29973;43.742;1.236;2023-05-29T06:58:33;17.60;99.90
44277;DHT22;29973;43.742;1.236;2023-05-29T07:00:59;17.50;99.90
44277;DHT22;29973;43.742;1.236;2023-05-29T07:03:26;17.50;99.90
44277;DHT22;29973;43.742;1.236;2023-05-29T07:05:52;17.70;99.90
44277;DHT22;29973;43.742;1.236;2023-05-29T07:08:18;18.00;99.90
44277;DHT22;29973;43.742;1.236;2023-05-29T07:10:44;18.30;99.90
44277;DHT22;29973;43.742;1.236;2023-05-29T07:13:09;18.70;99.90
44277;DHT22;29973;43.742;1.236;2023-05-29T07:15:37;19.30;99.90
44277;DHT22;29973;43.742;1.236;2023-05-29T07:18:03;19.70;99.90
44277;DHT22;29973;43.742;1.236;2023-05-29T07:20:28;19.60;99.90
44277;DHT22;29973;43.742;1.236;2023-05-29T07:22:54;19.50;99.90
44277;DHT22;29973;43.742;1.236;2023-05-29T07:25:20;19.80;99.90
44277;DHT22;29973;43.742;1.236;2023-05-29T07:27:45;20.00;99.90
44277;DHT22;29973;43.742;1.236;2023-05-29T07:30:11;20.40;99.90
44277;DHT22;29973;43.742;1.236;2023-05-29T07:32:37;20.60;99.90
44277;DHT22;29973;43.742;1.236;2023-05-29T07:35:03;21.20;99.90
44277;DHT22;29973;43.742;1.236;2023-05-29T07:37:29;20.70;99.90
44277;DHT22;29973;43.742;1.236;2023-05-29T07:39:55;20.50;99.90
44277;DHT22;29973;43.742;1.236;2023-05-29T07:42:21;20.60;99.90
44277;DHT22;29973;43.742;1.236;2023-05-29T07:44:47;20.80;99.90
44277;DHT22;29973;43.742;1.236;2023-05-29T07:47:13;20.90;99.90
44277;DHT22;29973;43.742;1.236;2023-05-29T07:49:39;21.20;99.90
44277;DHT22;29973;43.742;1.236;2023-05-29T07:52:05;21.00;99.90
44277;DHT22;29973;43.742;1.236;2023-05-29T07:54:31;21.00;99.90
44277;DHT22;29973;43.742;1.236;2023-05-29T07:56:58;21.10;99.90
44277;DHT22;29973;43.742;1.236;2023-05-29T07:59:25;20.60;99.90
44277;DHT22;29973;43.742;1.236;2023-05-29T08:01:51;20.60;99.90
44277;DHT22;29973;43.742;1.236;2023-05-29T08:04:17;20.50;99.90
44277;DHT22;29973;43.742;1.236;2023-05-29T08:06:42;20.50;99.90
44277;DHT22;29973;43.742;1.236;2023-05-29T08:09:09;20.80;99.90
44277;DHT22;29973;43.742;1.236;2023-05-29T08:11:36;21.00;99.90
44277;DHT22;29973;43.742;1.236;2023-05-29T08:14:03;20.80;99.90
44277;DHT22;29973;43.742;1.236;2023-05-29T08:16:28;21.00;99.90
44277;DHT22;29973;43.742;1.236;2023-05-29T08:18:54;21.60;99.90
44277;DHT22;29973;43.742;1.236;2023-05-29T08:21:21;21.40;99.90
44277;DHT22;29973;43.742;1.236;2023-05-29T08:23:47;21.20;99.90
44277;DHT22;29973;43.742;1.236;2023-05-29T08:26:12;21.50;99.90
44277;DHT22;29973;43.742;1.236;2023-05-29T08:28:39;21.80;99.90
44277;DHT22;29973;43.742;1.236;2023-05-29T08:31:04;22.10;99.90
44277;DHT22;29973;43.742;1.236;2023-05-29T08:33:30;22.20;99.90
44277;DHT22;29973;43.742;1.236;2023-05-29T08:35:58;22.50;99.90
44277;DHT22;29973;43.742;1.236;2023-05-29T08:38:24;22.60;99.90
44277;DHT22;29973;43.742;1.236;2023-05-29T08:40:51;22.60;99.90
44277;DHT22;29973;43.742;1.236;2023-05-29T08:43:19;22.40;99.90
44277;DHT22;29973;43.742;1.236;2023-05-29T08:45:47;22.40;99.90
44277;DHT22;29973;43.742;1.236;2023-05-29T08:48:17;22.70;99.90
44277;DHT22;29973;43.742;1.236;2023-05-29T08:50:45;22.40;99.90
44277;DHT22;29973;43.742;1.236;2023-05-29T08:53:17;22.80;99.90
44277;DHT22;29973;43.742;1.236;2023-05-29T08:55:45;22.50;99.90
44277;DHT22;29973;43.742;1.236;2023-05-29T08:58:13;22.30;99.90
44277;DHT22;29973;43.742;1.236;2023-05-29T09:00:40;23.60;99.90
44277;DHT22;29973;43.742;1.236;2023-05-29T09:03:06;24.00;99.90
44277;DHT22;29973;43.742;1.236;2023-05-29T09:05:33;23.40;99.90
44277;DHT22;29973;43.742;1.236;2023-05-29T09:07:59;24.00;99.90
44277;DHT22;29973;43.742;1.236;2023-05-29T09:10:25;24.50;99.90
44277;DHT22;29973;43.742;1.236;2023-05-29T09:12:51;23.80;99.90
44277;DHT22;29973;43.742;1.236;2023-05-29T09:15:22;24.20;99.90
44277;DHT22;29973;43.742;1.236;2023-05-29T09:17:55;23.50;99.90
44277;DHT22;29973;43.742;1.236;2023-05-29T09:20:23;24.70;99.70
44277;DHT22;29973;43.742;1.236;2023-05-29T09:22:53;24.70;99.90
44277;DHT22;29973;43.742;1.236;2023-05-29T09:25:22;24.60;99.90
44277;DHT22;29973;43.742;1.236;2023-05-29T09:27:51;23.80;99.90
44277;DHT22;29973;43.742;1.236;2023-05-29T09:32:57;23.80;99.90
44277;DHT22;29973;43.742;1.236;2023-05-29T09:35:23;24.90;99.90
44277;DHT22;29973;43.742;1.236;2023-05-29T09:37:49;23.70;99.90
44277;DHT22;29973;43.742;1.236;2023-05-29T09:40:15;23.40;99.90
44277;DHT22;29973;43.742;1.236;2023-05-29T09:42:41;23.70;99.90
44277;DHT22;29973;43.742;1.236;2023-05-29T09:45:10;24.10;99.90
44277;DHT22;29973;43.742;1.236;2023-05-29T09:47:35;23.80;99.90
44277;DHT22;29973;43.742;1.236;2023-05-29T09:50:01;23.70;99.70
44277;DHT22;29973;43.742;1.236;2023-05-29T09:52:29;24.20;99.90
44277;DHT22;29973;43.742;1.236;2023-05-29T09:54:55;23.90;99.90
44277;DHT22;29973;43.742;1.236;2023-05-29T09:57:23;24.00;99.90
44277;DHT22;29973;43.742;1.236;2023-05-29T09:59:50;24.80;99.60
44277;DHT22;29973;43.742;1.236;2023-05-29T10:02:18;25.70;99.50
44277;DHT22;29973;43.742;1.236;2023-05-29T10:04:44;25.40;97.70
44277;DHT22;29973;43.742;1.236;2023-05-29T10:07:26;25.50;98.00
44277;DHT22;29973;43.742;1.236;2023-05-29T10:09:59;25.20;96.90
44277;DHT22;29973;43.742;1.236;2023-05-29T10:12:26;25.30;97.80
44277;DHT22;29973;43.742;1.236;2023-05-29T10:14:56;24.90;98.30
44277;DHT22;29973;43.742;1.236;2023-05-29T10:17:35;25.40;99.60
44277;DHT22;29973;43.742;1.236;2023-05-29T10:20:02;25.20;99.40
44277;DHT22;29973;43.742;1.236;2023-05-29T10:22:31;25.40;97.20
44277;DHT22;29973;43.742;1.236;2023-05-29T10:24:58;25.00;97.70
44277;DHT22;29973;43.742;1.236;2023-05-29T10:27:25;25.50;96.30
44277;DHT22;29973;43.742;1.236;2023-05-29T10:30:25;24.90;98.10
44277;DHT22;29973;43.742;1.236;2023-05-29T10:35:53;24.50;97.80
44277;DHT22;29973;43.742;1.236;2023-05-29T10:38:20;24.40;99.90
44277;DHT22;29973;43.742;1.236;2023-05-29T10:40:47;24.70;98.10
44277;DHT22;29973;43.742;1.236;2023-05-29T10:43:34;25.30;98.30
44277;DHT22;29973;43.742;1.236;2023-05-29T10:46:00;25.10;97.70
44277;DHT22;29973;43.742;1.236;2023-05-29T10:50:55;25.00;96.70
44277;DHT22;29973;43.742;1.236;2023-05-29T10:53:26;24.80;98.90
44277;DHT22;29973;43.742;1.236;2023-05-29T10:55:53;25.00;96.80
44277;DHT22;29973;43.742;1.236;2023-05-29T11:00:46;24.80;98.60
44277;DHT22;29973;43.742;1.236;2023-05-29T11:06:20;24.50;98.10
44277;DHT22;29973;43.742;1.236;2023-05-29T11:08:54;25.30;96.50
44277;DHT22;29973;43.742;1.236;2023-05-29T11:11:32;26.00;96.40
44277;DHT22;29973;43.742;1.236;2023-05-29T11:14:03;27.50;94.50
44277;DHT22;29973;43.742;1.236;2023-05-29T11:18:57;26.10;94.20
44277;DHT22;29973;43.742;1.236;2023-05-29T11:21:43;26.70;95.20
44277;DHT22;29973;43.742;1.236;2023-05-29T11:24:14;27.60;92.30
44277;DHT22;29973;43.742;1.236;2023-05-29T11:26:45;28.10;92.30
44277;DHT22;29973;43.742;1.236;2023-05-29T11:29:11;28.00;91.50
44277;DHT22;29973;43.742;1.236;2023-05-29T11:31:40;28.10;93.00
44277;DHT22;29973;43.742;1.236;2023-05-29T11:34:09;28.80;90.70
44277;DHT22;29973;43.742;1.236;2023-05-29T11:36:37;27.30;90.30
44277;DHT22;29973;43.742;1.236;2023-05-29T11:39:03;28.50;88.00
44277;DHT22;29973;43.742;1.236;2023-05-29T11:41:29;29.20;90.20
44277;DHT22;29973;43.742;1.236;2023-05-29T11:43:59;29.50;84.50
44277;DHT22;29973;43.742;1.236;2023-05-29T11:46:25;27.60;81.10
44277;DHT22;29973;43.742;1.236;2023-05-29T11:48:52;30.30;82.70
44277;DHT22;29973;43.742;1.236;2023-05-29T11:51:18;32.20;67.80
44277;DHT22;29973;43.742;1.236;2023-05-29T11:53:46;32.10;64.40
44277;DHT22;29973;43.742;1.236;2023-05-29T11:56:12;29.30;76.00
44277;DHT22;29973;43.742;1.236;2023-05-29T11:58:41;29.50;88.20
44277;DHT22;29973;43.742;1.236;2023-05-29T12:01:08;31.60;72.90
44277;DHT22;29973;43.742;1.236;2023-05-29T12:03:41;33.50;65.60
44277;DHT22;29973;43.742;1.236;2023-05-29T12:06:09;33.10;64.60
44277;DHT22;29973;43.742;1.236;2023-05-29T12:08:36;33.90;55.80
44277;DHT22;29973;43.742;1.236;2023-05-29T12:11:02;32.30;60.70
44277;DHT22;29973;43.742;1.236;2023-05-29T12:13:28;30.40;65.60
44277;DHT22;29973;43.742;1.236;2023-05-29T12:15:57;30.20;70.90
44277;DHT22;29973;43.742;1.236;2023-05-29T12:18:24;32.00;62.40
44277;DHT22;29973;43.742;1.236;2023-05-29T12:20:50;31.60;58.30
44277;DHT22;29973;43.742;1.236;2023-05-29T12:23:18;29.70;65.70
44277;DHT22;29973;43.742;1.236;2023-05-29T12:25:46;30.70;63.10
44277;DHT22;29973;43.742;1.236;2023-05-29T12:28:16;31.10;62.40
44277;DHT22;29973;43.742;1.236;2023-05-29T12:30:46;33.50;59.70
44277;DHT22;29973;43.742;1.236;2023-05-29T12:33:29;34.70;57.10
44277;DHT22;29973;43.742;1.236;2023-05-29T12:36:00;33.50;55.60
44277;DHT22;29973;43.742;1.236;2023-05-29T12:38:26;32.80;57.70
44277;DHT22;29973;43.742;1.236;2023-05-29T12:40:52;32.20;56.30
44277;DHT22;29973;43.742;1.236;2023-05-29T12:43:19;31.60;60.90
44277;DHT22;29973;43.742;1.236;2023-05-29T12:45:44;33.10;56.10
44277;DHT22;29973;43.742;1.236;2023-05-29T12:48:10;34.70;54.70
44277;DHT22;29973;43.742;1.236;2023-05-29T12:50:40;34.90;50.50
44277;DHT22;29973;43.742;1.236;2023-05-29T12:53:11;35.80;54.80
44277;DHT22;29973;43.742;1.236;2023-05-29T12:55:42;35.10;49.60
44277;DHT22;29973;43.742;1.236;2023-05-29T12:58:14;36.60;53.40
44277;DHT22;29973;43.742;1.236;2023-05-29T13:00:42;37.70;48.20
44277;DHT22;29973;43.742;1.236;2023-05-29T13:03:08;37.40;44.70
44277;DHT22;29973;43.742;1.236;2023-05-29T13:05:36;34.70;50.30
44277;DHT22;29973;43.742;1.236;2023-05-29T13:08:02;34.60;52.90
44277;DHT22;29973;43.742;1.236;2023-05-29T13:10:30;35.50;52.10
44277;DHT22;29973;43.742;1.236;2023-05-29T13:12:56;34.50;53.80
44277;DHT22;29973;43.742;1.236;2023-05-29T13:15:25;35.60;52.90
44277;DHT22;29973;43.742;1.236;2023-05-29T13:17:52;37.50;49.00
44277;DHT22;29973;43.742;1.236;2023-05-29T13:20:19;35.80;48.10
44277;DHT22;29973;43.742;1.236;2023-05-29T13:22:46;36.10;48.80
44277;DHT22;29973;43.742;1.236;2023-05-29T13:25:13;35.70;49.40
44277;DHT22;29973;43.742;1.236;2023-05-29T13:27:41;36.10;51.50
44277;DHT22;29973;43.742;1.236;2023-05-29T13:30:09;34.80;50.10
44277;DHT22;29973;43.742;1.236;2023-05-29T13:32:35;35.50;47.90
44277;DHT22;29973;43.742;1.236;2023-05-29T13:35:02;37.60;48.60
44277;DHT22;29973;43.742;1.236;2023-05-29T13:37:28;37.50;43.80
44277;DHT22;29973;43.742;1.236;2023-05-29T13:39:54;37.40;47.50
44277;DHT22;29973;43.742;1.236;2023-05-29T13:42:20;37.70;43.60
44277;DHT22;29973;43.742;1.236;2023-05-29T13:44:47;37.60;44.20
44277;DHT22;29973;43.742;1.236;2023-05-29T13:47:13;35.10;44.70
44277;DHT22;29973;43.742;1.236;2023-05-29T13:49:39;37.10;43.30
44277;DHT22;29973;43.742;1.236;2023-05-29T13:52:05;38.20;41.00
44277;DHT22;29973;43.742;1.236;2023-05-29T13:54:31;39.20;40.10
44277;DHT22;29973;43.742;1.236;2023-05-29T13:57:01;39.30;39.00
44277;DHT22;29973;43.742;1.236;2023-05-29T13:59:27;38.90;37.40
44277;DHT22;29973;43.742;1.236;2023-05-29T14:01:53;39.50;33.80
44277;DHT22;29973;43.742;1.236;2023-05-29T14:04:18;40.40;34.60
44277;DHT22;29973;43.742;1.236;2023-05-29T14:06:44;38.80;35.10
44277;DHT22;29973;43.742;1.236;2023-05-29T14:09:13;39.20;33.70
44277;DHT22;29973;43.742;1.236;2023-05-29T14:11:39;39.30;38.00
44277;DHT22;29973;43.742;1.236;2023-05-29T14:14:06;39.80;35.60
44277;DHT22;29973;43.742;1.236;2023-05-29T14:16:32;39.00;34.20
44277;DHT22;29973;43.742;1.236;2023-05-29T14:18:59;39.80;34.40
44277;DHT22;29973;43.742;1.236;2023-05-29T14:21:24;40.40;30.30
44277;DHT22;29973;43.742;1.236;2023-05-29T14:23:50;39.40;34.50
44277;DHT22;29973;43.742;1.236;2023-05-29T14:26:16;38.90;34.30
44277;DHT22;29973;43.742;1.236;2023-05-29T14:28:42;39.00;34.50
44277;DHT22;29973;43.742;1.236;2023-05-29T14:31:08;40.10;32.90
44277;DHT22;29973;43.742;1.236;2023-05-29T14:33:33;39.90;32.70
44277;DHT22;29973;43.742;1.236;2023-05-29T14:35:59;40.10;31.70
44277;DHT22;29973;43.742;1.236;2023-05-29T14:38:25;40.90;35.00
44277;DHT22;29973;43.742;1.236;2023-05-29T14:40:51;40.60;33.60
44277;DHT22;29973;43.742;1.236;2023-05-29T14:43:17;40.90;31.40
44277;DHT22;29973;43.742;1.236;2023-05-29T14:45:43;41.30;30.40
44277;DHT22;29973;43.742;1.236;2023-05-29T14:48:09;41.70;31.60
44277;DHT22;29973;43.742;1.236;2023-05-29T14:50:36;40.30;32.20
44277;DHT22;29973;43.742;1.236;2023-05-29T14:53:02;38.90;32.90
44277;DHT22;29973;43.742;1.236;2023-05-29T14:55:28;40.10;30.10
44277;DHT22;29973;43.742;1.236;2023-05-29T14:57:54;39.10;33.90
44277;DHT22;29973;43.742;1.236;2023-05-29T15:00:20;38.30;32.40
44277;DHT22;29973;43.742;1.236;2023-05-29T15:02:45;37.40;34.40
44277;DHT22;29973;43.742;1.236;2023-05-29T15:05:11;38.10;36.30
44277;DHT22;29973;43.742;1.236;2023-05-29T15:07:37;40.70;31.80
44277;DHT22;29973;43.742;1.236;2023-05-29T15:10:03;41.70;29.90
44277;DHT22;29973;43.742;1.236;2023-05-29T15:12:29;40.90;29.30
44277;DHT22;29973;43.742;1.236;2023-05-29T15:14:55;41.60;29.70
44277;DHT22;29973;43.742;1.236;2023-05-29T15:17:21;40.30;31.80
44277;DHT22;29973;43.742;1.236;2023-05-29T15:19:47;38.60;31.20
44277;DHT22;29973;43.742;1.236;2023-05-29T15:22:13;38.30;32.40
44277;DHT22;29973;43.742;1.236;2023-05-29T15:24:38;37.50;34.30
44277;DHT22;29973;43.742;1.236;2023-05-29T15:27:04;35.70;36.70
44277;DHT22;29973;43.742;1.236;2023-05-29T15:29:33;34.90;38.20
44277;DHT22;29973;43.742;1.236;2023-05-29T15:32:00;34.70;38.60
44277;DHT22;29973;43.742;1.236;2023-05-29T15:34:26;34.20;37.30
44277;DHT22;29973;43.742;1.236;2023-05-29T15:36:52;33.10;39.50
44277;DHT22;29973;43.742;1.236;2023-05-29T15:39:17;33.40;39.60
44277;DHT22;29973;43.742;1.236;2023-05-29T15:41:43;34.00;39.10
44277;DHT22;29973;43.742;1.236;2023-05-29T15:44:09;34.40;38.00
44277;DHT22;29973;43.742;1.236;2023-05-29T15:46:34;34.60;35.00
44277;DHT22;29973;43.742;1.236;2023-05-29T15:49:00;35.20;36.40
44277;DHT22;29973;43.742;1.236;2023-05-29T15:51:26;35.50;32.90
44277;DHT22;29973;43.742;1.236;2023-05-29T15:53:52;35.40;36.90
44277;DHT22;29973;43.742;1.236;2023-05-29T15:56:19;35.00;38.80